Time;durP1;ratioP1;P1;durP2;ratioP2;P2;SDS_P1;SDS_P2;PMS_P1;PMS_P2;Temp;Humidity;BMP_temperature;BMP_pressure;BME280_temperature;BME280_humidity;BME280_pressure;Samples;Min_cycle;Max_cycle;Signal;HPM_P1;HPM_P2
2022/09/22 00:01:38;;;;;;;1.00;0.90;;;4.10;99.90;4.70;97474.00;;;;5075167;28;20472;-87
2022/09/22 00:04:27;;;;;;;0.80;0.80;;;4.20;99.90;4.70;97465.00;;;;5075632;28;20442;-86
2022/09/22 00:07:15;;;;;;;0.73;0.73;;;4.00;99.90;4.80;97470.00;;;;5073338;28;20431;-87
2022/09/22 00:10:06;;;;;;;0.70;0.70;;;4.00;99.90;4.90;97459.00;;;;5074604;28;20515;-88
2022/09/22 00:12:55;;;;;;;0.83;0.83;;;4.00;99.90;5.10;97463.00;;;;5063467;28;20967;-86
2022/09/22 00:15:47;;;;;;;1.20;0.97;;;4.10;99.90;4.90;97457.00;;;;5059674;28;20546;-85
2022/09/22 00:18:36;;;;;;;4.77;1.00;;;4.20;99.90;4.60;97455.00;;;;5068308;28;20971;-88
2022/09/22 00:21:26;;;;;;;1.13;0.90;;;4.10;99.90;4.40;97451.00;;;;5055705;28;20435;-87
2022/09/22 00:24:16;;;;;;;0.70;0.70;;;4.10;99.90;4.60;97448.00;;;;5054304;28;20447;-87
2022/09/22 00:27:05;;;;;;;1.10;1.00;;;3.90;99.90;4.80;97443.00;;;;5053521;28;21023;-87
2022/09/22 00:29:54;;;;;;;1.00;0.80;;;4.00;99.90;4.60;97449.00;;;;5053691;28;20419;-87
2022/09/22 00:32:44;;;;;;;0.80;0.80;;;4.00;99.90;4.30;97450.00;;;;5053719;28;20439;-87
2022/09/22 00:35:32;;;;;;;0.80;0.80;;;3.90;99.90;4.10;97434.00;;;;5052062;28;20505;-87
2022/09/22 00:38:21;;;;;;;2.53;1.10;;;3.80;99.90;3.80;97449.00;;;;5067900;28;20438;-87
2022/09/22 00:41:18;;;;;;;0.70;0.70;;;3.70;99.90;3.70;97447.00;;;;5069866;28;20474;-87
2022/09/22 00:44:37;;;;;;;1.67;0.67;;;3.60;99.90;3.60;97442.00;;;;5070314;28;20967;-87
2022/09/22 00:47:37;;;;;;;0.80;0.80;;;3.40;99.90;3.80;97453.00;;;;5065834;28;20439;-86
2022/09/22 00:50:28;;;;;;;0.83;0.83;;;4.70;99.90;3.70;97451.00;;;;5053574;28;20484;-87
2022/09/22 00:53:17;;;;;;;7.33;0.93;;;3.40;99.90;3.50;97448.00;;;;5064130;28;20524;-87
2022/09/22 00:56:10;;;;;;;0.90;0.90;;;4.90;99.90;3.50;97444.00;;;;5072190;28;20551;-86
2022/09/22 00:59:02;;;;;;;0.90;0.90;;;3.20;99.90;3.30;97429.00;;;;5073413;28;20461;-88
2022/09/22 01:01:51;;;;;;;0.90;0.90;;;3.10;99.90;3.30;97438.00;;;;5069061;28;20427;-86
2022/09/22 01:04:41;;;;;;;0.97;0.90;;;3.10;99.90;3.70;97435.00;;;;5053807;28;20423;-87
2022/09/22 01:07:32;;;;;;;0.95;0.95;;;3.10;99.90;4.00;97435.00;;;;5059802;28;20491;-86
2022/09/22 01:10:22;;;;;;;1.93;1.30;;;3.10;99.90;4.30;97435.00;;;;5064131;28;20463;-86
2022/09/22 01:13:25;;;;;;;1.10;1.10;;;3.30;99.90;4.10;97438.00;;;;5071813;28;20486;-87
2022/09/22 01:16:32;;;;;;;0.70;0.70;;;3.30;99.90;4.20;97427.00;;;;5052617;28;20546;-87
2022/09/22 01:20:03;;;;;;;0.87;0.87;;;3.40;99.90;4.40;97432.00;;;;5052802;28;20427;-87
2022/09/22 01:23:29;;;;;;;1.40;0.80;;;3.50;99.90;4.50;97425.00;;;;5047391;28;20485;-87
2022/09/22 01:27:05;;;;;;;1.00;1.00;;;4.00;99.90;4.10;97422.00;;;;5052761;28;20477;-87
2022/09/22 01:30:23;;;;;;;2.07;1.10;;;3.60;99.90;3.50;97407.00;;;;5067234;28;20418;-87
2022/09/22 01:33:27;;;;;;;1.07;1.00;;;3.40;99.90;3.20;97414.00;;;;5068879;28;20451;-87
2022/09/22 01:36:25;;;;;;;0.73;0.73;;;3.10;99.90;3.40;97402.00;;;;5057826;28;20457;-87
2022/09/22 01:39:19;;;;;;;1.20;1.10;;;3.00;99.90;3.20;97404.00;;;;5071481;28;20437;-87
2022/09/22 01:42:13;;;;;;;0.97;0.90;;;3.00;99.90;2.90;97398.00;;;;5068974;28;20435;-88
2022/09/22 01:45:08;;;;;;;0.90;0.90;;;2.80;99.90;3.30;97397.00;;;;5062015;28;20511;-88
2022/09/22 01:48:04;;;;;;;1.00;0.90;;;2.80;99.90;3.10;97400.00;;;;5060906;28;21026;-89
2022/09/22 01:50:56;;;;;;;1.43;0.90;;;2.70;99.90;2.80;97393.00;;;;5067058;28;20840;-88
2022/09/22 01:53:52;;;;;;;0.67;0.67;;;2.70;99.90;2.90;97399.00;;;;5052575;28;20795;-87
2022/09/22 01:56:48;;;;;;;1.27;0.90;;;2.60;99.90;2.90;97397.00;;;;5053244;28;20992;-87
2022/09/22 01:59:39;;;;;;;0.90;0.83;;;2.60;99.90;3.00;97400.00;;;;5063596;28;21105;-88
2022/09/22 02:02:36;;;;;;;1.00;1.00;;;2.60;99.90;3.20;97395.00;;;;5061527;28;20960;-87
2022/09/22 02:05:32;;;;;;;1.07;0.80;;;2.60;99.90;2.80;97401.00;;;;5071785;28;20951;-87
2022/09/22 02:08:27;;;;;;;0.70;0.70;;;2.60;99.90;2.80;97391.00;;;;5072241;28;20955;-89
2022/09/22 02:11:16;;;;;;;0.93;0.90;;;2.60;99.90;2.80;97389.00;;;;5060390;28;20502;-87
2022/09/22 02:14:07;;;;;;;0.93;0.93;;;2.50;99.90;3.00;97386.00;;;;5071090;28;20438;-88
2022/09/22 02:16:56;;;;;;;1.10;1.00;;;2.50;99.90;2.80;97379.00;;;;5053844;28;20546;-88
2022/09/22 02:19:46;;;;;;;1.07;0.80;;;2.80;99.90;2.60;97388.00;;;;5052525;28;21006;-88
2022/09/22 02:22:35;;;;;;;1.33;1.30;;;3.20;99.90;2.50;97383.00;;;;5052426;28;20980;-88
2022/09/22 02:25:24;;;;;;;1.07;1.07;;;2.90;99.90;2.50;97375.00;;;;5054875;28;20496;-87
2022/09/22 02:28:16;;;;;;;1.30;1.07;;;2.30;99.90;2.60;97379.00;;;;5057255;28;20795;-87
2022/09/22 02:31:08;;;;;;;0.80;0.80;;;2.30;99.90;2.40;97386.00;;;;5075065;28;20519;-89
2022/09/22 02:34:12;;;;;;;0.70;0.70;;;2.30;99.90;2.60;97378.00;;;;5075559;28;20446;-87
2022/09/22 02:37:11;;;;;;;1.60;1.30;;;2.20;99.90;2.70;97377.00;;;;5071254;28;20467;-88
2022/09/22 02:40:09;;;;;;;0.97;0.97;;;2.30;99.90;2.80;97381.00;;;;5059830;28;20434;-87
2022/09/22 02:43:08;;;;;;;1.17;1.07;;;2.30;99.90;3.10;97384.00;;;;5058741;28;20447;-87
2022/09/22 02:46:04;;;;;;;5.33;1.67;;;2.40;99.90;2.70;97379.00;;;;5055974;28;20533;-87
2022/09/22 02:48:59;;;;;;;2.00;1.87;;;2.40;99.90;2.60;97381.00;;;;5074011;28;20439;-87
2022/09/22 02:51:49;;;;;;;1.37;1.27;;;2.30;99.90;2.70;97384.00;;;;5073836;28;20842;-87
2022/09/22 02:54:39;;;;;;;0.90;0.87;;;2.20;99.90;2.30;97378.00;;;;5069390;28;20519;-89
2022/09/22 02:57:28;;;;;;;1.23;0.90;;;3.00;99.90;2.30;97374.00;;;;5074560;28;21112;-89
2022/09/22 03:00:17;;;;;;;2.57;1.27;;;2.80;99.90;2.40;97373.00;;;;5074980;28;20462;-86
2022/09/22 03:03:05;;;;;;;3.17;1.20;;;2.10;99.90;2.50;97373.00;;;;5073351;28;20629;-88
2022/09/22 03:05:54;;;;;;;1.10;1.10;;;2.20;99.90;2.40;97369.00;;;;5075318;28;20791;-87
2022/09/22 03:08:43;;;;;;;0.80;0.80;;;2.10;99.90;2.40;97368.00;;;;5086642;22;20499;-71
2022/09/22 03:11:33;;;;;;;1.37;0.90;;;2.10;99.90;2.20;97367.00;;;;5022850;28;20849;-70
2022/09/22 03:14:21;;;;;;;0.80;0.80;;;2.00;99.90;2.10;97355.00;;;;5017915;28;20417;-68
2022/09/22 03:17:10;;;;;;;1.40;1.30;;;2.00;99.90;2.00;97354.00;;;;5018411;28;20972;-67
2022/09/22 03:19:59;;;;;;;0.83;0.83;;;1.90;99.90;2.50;97363.00;;;;5001612;28;20426;-70
2022/09/22 03:22:47;;;;;;;1.23;1.20;;;2.00;99.90;2.90;97366.00;;;;5008346;28;20491;-68
2022/09/22 03:25:36;;;;;;;1.47;1.10;;;2.10;99.90;2.80;97359.00;;;;5011386;28;20421;-70
2022/09/22 03:28:26;;;;;;;1.33;1.10;;;2.20;99.90;2.70;97357.00;;;;5011056;28;20448;-71
2022/09/22 03:31:15;;;;;;;1.10;1.00;;;2.30;99.90;3.00;97353.00;;;;5009505;28;20864;-70
2022/09/22 03:34:03;;;;;;;1.27;1.03;;;2.30;99.90;2.40;97352.00;;;;5006798;28;20417;-71
2022/09/22 03:36:52;;;;;;;0.87;0.87;;;2.20;99.90;2.10;97349.00;;;;5011021;28;20546;-71
2022/09/22 03:39:41;;;;;;;1.60;1.33;;;2.00;99.90;2.10;97340.00;;;;5007802;28;20413;-70
2022/09/22 03:42:29;;;;;;;1.07;1.00;;;1.90;99.90;2.20;97346.00;;;;5000359;28;20493;-68
2022/09/22 03:45:19;;;;;;;1.10;1.00;;;1.90;99.90;2.10;97342.00;;;;4991095;28;20422;-71
2022/09/22 03:48:08;;;;;;;1.00;1.00;;;1.90;99.90;2.00;97335.00;;;;5001611;28;20488;-69
2022/09/22 03:50:57;;;;;;;0.93;0.93;;;1.80;99.90;2.00;97338.00;;;;5006566;28;21294;-68
2022/09/22 03:53:46;;;;;;;1.00;0.97;;;1.80;99.90;2.20;97343.00;;;;5009262;28;20437;-68
2022/09/22 03:56:35;;;;;;;1.10;1.00;;;1.80;99.90;2.30;97348.00;;;;5009734;28;20441;-69
2022/09/22 03:59:24;;;;;;;1.90;1.50;;;1.80;99.90;2.70;97345.00;;;;5010658;28;20421;-69
2022/09/22 04:02:14;;;;;;;1.67;1.43;;;1.90;99.90;3.00;97356.00;;;;5008314;28;20467;-68
2022/09/22 04:05:02;;;;;;;1.30;1.30;;;2.10;99.90;3.10;97349.00;;;;5010593;28;20425;-68
2022/09/22 04:07:51;;;;;;;1.37;1.27;;;2.20;99.90;2.90;97361.00;;;;5009218;28;21062;-68
2022/09/22 04:10:40;;;;;;;1.63;1.10;;;2.30;99.90;2.90;97362.00;;;;5009380;28;20845;-69
2022/09/22 04:13:28;;;;;;;1.67;1.57;;;2.40;99.90;2.80;97356.00;;;;5006552;28;20422;-69
2022/09/22 04:16:17;;;;;;;1.20;0.90;;;2.40;99.90;2.50;97358.00;;;;4996974;28;20504;-73
2022/09/22 04:19:08;;;;;;;1.03;1.03;;;2.30;99.90;2.70;97351.00;;;;5007734;28;20433;-68
2022/09/22 04:21:56;;;;;;;1.13;1.13;;;2.30;99.90;2.60;97355.00;;;;4997668;28;20441;-67
2022/09/22 04:24:45;;;;;;;1.00;1.00;;;2.20;99.90;2.30;97354.00;;;;5002655;28;20528;-69
2022/09/22 04:27:33;;;;;;;0.93;0.90;;;2.20;99.90;2.30;97357.00;;;;5003864;28;20457;-68
2022/09/22 04:30:23;;;;;;;2.87;1.33;;;2.10;99.90;2.40;97354.00;;;;5003060;28;20442;-70
2022/09/22 04:33:12;;;;;;;2.67;0.97;;;2.10;99.90;2.60;97363.00;;;;5008441;28;20461;-69
2022/09/22 04:36:02;;;;;;;1.33;1.23;;;2.10;99.90;2.60;97358.00;;;;5003437;28;20453;-70
2022/09/22 04:38:51;;;;;;;1.20;1.10;;;2.10;99.90;2.70;97358.00;;;;5006514;28;20793;-70
2022/09/22 04:41:39;;;;;;;1.67;1.13;;;2.10;99.90;2.80;97361.00;;;;5001577;28;20441;-70
2022/09/22 04:44:28;;;;;;;1.70;1.53;;;2.20;99.90;2.90;97359.00;;;;5002693;28;20474;-70
2022/09/22 04:47:18;;;;;;;1.30;1.20;;;2.20;99.90;3.20;97354.00;;;;5008429;28;20472;-70
2022/09/22 04:50:08;;;;;;;1.10;1.10;;;2.30;99.90;3.40;97366.00;;;;5005932;28;20504;-70
2022/09/22 04:52:58;;;;;;;1.23;1.00;;;2.40;99.90;3.00;97361.00;;;;5003919;28;20449;-69
2022/09/22 04:55:48;;;;;;;1.10;1.07;;;2.50;99.90;3.10;97361.00;;;;5004036;28;20448;-69
2022/09/22 04:58:37;;;;;;;1.20;1.10;;;2.40;99.90;2.60;97358.00;;;;4998567;28;20450;-71
2022/09/22 05:01:26;;;;;;;1.10;1.10;;;2.30;99.90;2.50;97354.00;;;;5003883;28;20832;-69
2022/09/22 05:04:14;;;;;;;1.40;1.30;;;2.30;99.90;2.30;97351.00;;;;5009409;28;20417;-71
2022/09/22 05:07:03;;;;;;;1.70;1.60;;;2.20;99.90;2.50;97356.00;;;;5006657;28;20920;-68
2022/09/22 05:09:53;;;;;;;8.53;5.90;;;2.10;99.90;2.70;97364.00;;;;5019243;28;20451;-69
2022/09/22 05:12:43;;;;;;;11.37;6.47;;;2.10;99.90;2.70;97370.00;;;;5015548;28;20425;-69
2022/09/22 05:15:33;;;;;;;7.23;5.63;;;2.20;99.90;2.80;97370.00;;;;5025371;28;20783;-69
2022/09/22 05:18:22;;;;;;;4.10;3.70;;;2.20;99.90;3.00;97366.00;;;;5029412;28;20955;-70
2022/09/22 05:21:11;;;;;;;4.20;3.80;;;2.20;99.90;3.20;97364.00;;;;5027470;28;20474;-69
2022/09/22 05:23:59;;;;;;;4.90;3.63;;;2.40;99.90;3.20;97362.00;;;;5019313;28;21018;-69
2022/09/22 05:26:49;;;;;;;3.07;2.20;;;2.50;99.90;3.20;97346.00;;;;5019690;28;21158;-69
2022/09/22 05:29:39;;;;;;;2.40;2.20;;;2.60;99.90;3.20;97355.00;;;;5021579;28;20518;-69
2022/09/22 05:32:28;;;;;;;2.20;1.60;;;2.70;99.90;3.40;97362.00;;;;5022012;28;20935;-69
2022/09/22 05:35:19;;;;;;;1.47;1.30;;;2.70;99.90;3.40;97372.00;;;;5019590;28;20417;-71
2022/09/22 05:38:08;;;;;;;1.23;1.20;;;2.80;99.90;3.40;97360.00;;;;5023922;28;20476;-68
2022/09/22 05:40:57;;;;;;;1.90;1.77;;;2.80;99.90;3.50;97373.00;;;;5023487;28;21033;-70
2022/09/22 05:43:47;;;;;;;1.53;1.43;;;2.80;99.90;3.50;97363.00;;;;5015759;28;20475;-69
2022/09/22 05:46:35;;;;;;;2.10;1.60;;;2.90;99.90;4.00;97366.00;;;;5019230;28;20489;-69
2022/09/22 05:49:24;;;;;;;1.60;1.50;;;3.00;99.90;4.00;97363.00;;;;5028291;28;20435;-69
2022/09/22 05:52:13;;;;;;;2.03;1.73;;;3.10;99.90;3.50;97351.00;;;;5026267;28;20463;-71
2022/09/22 05:55:01;;;;;;;20.07;10.73;;;3.10;99.90;3.40;97351.00;;;;5024959;28;20452;-70
2022/09/22 05:57:57;;;;;;;16.50;9.63;;;3.00;99.90;3.60;97349.00;;;;5022174;28;20492;-72
2022/09/22 06:00:47;;;;;;;23.43;11.73;;;3.10;99.90;3.80;97355.00;;;;5025990;28;20462;-68
2022/09/22 06:03:35;;;;;;;6.37;3.87;;;3.20;99.90;3.50;97348.00;;;;5030760;28;20423;-70
2022/09/22 06:06:24;;;;;;;3.23;2.30;;;3.20;99.90;4.00;97354.00;;;;5032602;28;20504;-70
2022/09/22 06:09:13;;;;;;;2.43;1.40;;;3.30;99.90;4.30;97354.00;;;;5032371;28;20913;-70
2022/09/22 06:12:02;;;;;;;1.50;1.40;;;3.40;99.90;4.60;97359.00;;;;5029925;28;20474;-70
2022/09/22 06:14:51;;;;;;;2.07;1.73;;;3.60;99.90;4.50;97363.00;;;;5027997;28;20439;-69
2022/09/22 06:17:41;;;;;;;2.97;1.77;;;3.70;99.90;4.90;97371.00;;;;5026760;28;20510;-69
2022/09/22 06:20:29;;;;;;;2.00;1.80;;;3.90;99.90;4.90;97374.00;;;;5028148;28;20970;-69
2022/09/22 06:23:18;;;;;;;1.70;1.60;;;4.00;99.90;4.80;97361.00;;;;5026991;28;20428;-69
2022/09/22 06:26:07;;;;;;;1.40;1.30;;;4.10;99.90;5.20;97360.00;;;;5022241;28;20468;-69
2022/09/22 06:28:56;;;;;;;1.00;1.00;;;4.20;99.90;5.30;97365.00;;;;5027539;28;20579;-69
2022/09/22 06:31:47;;;;;;;3.10;2.33;;;3.00;99.90;5.40;97370.00;;;;5026264;28;20452;-69
2022/09/22 06:34:38;;;;;;;2.50;2.23;;;4.50;99.90;5.50;97373.00;;;;5024249;28;20982;-71
2022/09/22 06:37:27;;;;;;;2.37;2.17;;;4.60;99.90;5.90;97365.00;;;;5023053;28;20500;-70
2022/09/22 06:40:16;;;;;;;2.50;2.10;;;4.70;99.90;6.00;97367.00;;;;5027367;28;20921;-69
2022/09/22 06:43:10;;;;;;;2.63;2.20;;;4.90;99.90;6.50;97365.00;;;;5021678;28;20444;-69
2022/09/22 06:46:01;;;;;;;1.93;1.60;;;5.10;99.90;6.70;97360.00;;;;5020189;28;20206;-70
2022/09/22 06:48:56;;;;;;;3.97;2.00;;;5.20;99.90;7.10;97372.00;;;;5027020;28;20723;-70
2022/09/22 06:51:48;;;;;;;3.23;1.63;;;5.60;99.90;6.70;97367.00;;;;5023986;28;20689;-69
2022/09/22 06:54:37;;;;;;;4.00;2.23;;;5.70;99.90;7.20;97373.00;;;;5026527;28;20748;-69
2022/09/22 06:57:26;;;;;;;3.20;2.30;;;5.90;99.90;7.80;97370.00;;;;5025948;28;20640;-69
2022/09/22 07:00:16;;;;;;;5.43;3.13;;;6.20;99.90;8.20;97381.00;;;;5028610;28;20282;-69
2022/09/22 07:03:07;;;;;;;2.83;2.30;;;6.40;99.90;8.60;97380.00;;;;5021937;28;20205;-69
2022/09/22 07:05:59;;;;;;;5.40;3.03;;;6.70;99.90;8.70;97378.00;;;;5023304;28;20198;-69
2022/09/22 07:08:49;;;;;;;5.67;2.83;;;7.00;99.90;9.10;97373.00;;;;5023300;28;20243;-69
2022/09/22 07:11:38;;;;;;;4.53;2.33;;;7.30;99.90;9.10;97369.00;;;;5023632;28;20198;-70
2022/09/22 07:14:28;;;;;;;4.83;2.53;;;7.60;99.90;9.10;97368.00;;;;5024906;28;20194;-69
2022/09/22 07:17:17;;;;;;;2.80;2.43;;;7.80;99.90;8.40;97357.00;;;;5023819;28;20308;-72
2022/09/22 07:20:08;;;;;;;3.87;1.97;;;7.80;99.90;8.50;97353.00;;;;5026387;28;20672;-69
2022/09/22 07:22:59;;;;;;;2.13;1.93;;;7.80;99.90;8.60;97352.00;;;;5023392;28;20206;-68
2022/09/22 07:25:55;;;;;;;2.30;2.10;;;7.80;99.90;8.60;97346.00;;;;5030510;28;20237;-67
2022/09/22 07:28:50;;;;;;;4.37;2.33;;;7.90;99.90;8.90;97356.00;;;;5028903;28;20240;-70
2022/09/22 07:31:40;;;;;;;1.60;1.50;;;7.90;99.90;9.10;97350.00;;;;5022326;28;20275;-70
2022/09/22 07:34:29;;;;;;;2.10;1.90;;;8.10;99.90;9.30;97344.00;;;;5024169;28;20210;-69
2022/09/22 07:37:17;;;;;;;2.20;1.53;;;8.20;99.90;10.00;97350.00;;;;5015347;28;20217;-68
2022/09/22 07:40:08;;;;;;;5.97;1.73;;;8.40;99.90;10.30;97354.00;;;;5023383;28;20671;-68
2022/09/22 07:42:58;;;;;;;1.83;1.40;;;8.70;99.90;11.10;97349.00;;;;5025821;28;20843;-67
2022/09/22 07:45:54;;;;;;;2.30;1.20;;;9.10;99.90;11.60;97358.00;;;;5020605;28;20685;-67
2022/09/22 07:48:46;;;;;;;2.10;1.17;;;9.60;99.90;11.90;97370.00;;;;5019615;28;20799;-68
2022/09/22 07:51:36;;;;;;;1.10;1.00;;;10.00;99.90;12.00;97362.00;;;;5016611;28;20197;-66
2022/09/22 07:54:26;;;;;;;1.27;1.10;;;10.30;99.90;12.10;97370.00;;;;5021801;28;20200;-72
2022/09/22 07:57:14;;;;;;;2.13;1.93;;;10.60;99.90;12.20;97370.00;;;;5026681;28;20236;-69
2022/09/22 08:00:06;;;;;;;1.20;1.10;;;10.90;99.90;12.50;97357.00;;;;5025208;28;20218;-66
2022/09/22 08:02:56;;;;;;;1.10;0.97;;;11.00;99.90;12.40;97365.00;;;;5023571;28;20193;-68
2022/09/22 08:05:48;;;;;;;1.47;1.37;;;11.20;99.90;12.50;97351.00;;;;5021796;28;20244;-66
2022/09/22 08:08:38;;;;;;;2.37;1.30;;;11.30;99.90;12.50;97363.00;;;;5022480;28;20248;-67
2022/09/22 08:11:28;;;;;;;3.90;1.30;;;11.40;99.90;13.10;97355.00;;;;5025530;28;20228;-69
2022/09/22 08:14:19;;;;;;;4.77;1.50;;;11.60;99.90;13.60;97364.00;;;;5022035;28;20212;-69
2022/09/22 08:17:11;;;;;;;2.53;1.67;;;11.80;99.90;13.80;97366.00;;;;5028902;28;20660;-69
2022/09/22 08:20:02;;;;;;;1.37;1.23;;;12.10;99.90;13.90;97365.00;;;;5023569;28;20205;-70
2022/09/22 08:22:52;;;;;;;1.60;1.40;;;12.30;99.90;13.60;97371.00;;;;5022175;28;20333;-68
2022/09/22 08:25:42;;;;;;;1.97;1.20;;;12.40;99.90;14.10;97362.00;;;;5023690;28;20197;-68
2022/09/22 08:28:31;;;;;;;3.10;1.30;;;12.50;99.90;14.40;97366.00;;;;5022926;28;20359;-69
2022/09/22 08:31:20;;;;;;;1.23;1.13;;;12.70;99.90;14.50;97354.00;;;;5020275;28;20197;-69
2022/09/22 08:34:12;;;;;;;1.83;1.53;;;12.90;99.90;14.70;97357.00;;;;5029089;28;20220;-69
2022/09/22 08:37:01;;;;;;;0.93;0.93;;;13.10;99.90;14.40;97370.00;;;;5011525;28;20647;-69
2022/09/22 08:39:50;;;;;;;1.53;1.43;;;13.10;99.90;14.80;97362.00;;;;5021117;28;20209;-70
2022/09/22 08:42:40;;;;;;;1.43;1.23;;;13.20;99.90;14.80;97350.00;;;;5021977;28;20228;-71
2022/09/22 08:45:32;;;;;;;4.67;1.70;;;13.40;99.90;15.40;97361.00;;;;5013364;28;20687;-69
2022/09/22 08:51:52;;;;;;;3.60;1.50;;;13.80;99.90;15.40;97360.00;;;;5020702;28;20220;-65
2022/09/22 08:54:40;;;;;;;1.33;1.23;;;13.90;99.90;15.70;97351.00;;;;5024412;28;20547;-66
2022/09/22 08:57:56;;;;;;;1.13;0.93;;;14.00;99.90;16.40;97349.00;;;;5027190;28;20631;-66
2022/09/22 09:00:51;;;;;;;1.50;1.40;;;14.30;99.90;15.90;97349.00;;;;5071047;22;20224;-77
2022/09/22 09:03:55;;;;;;;1.33;1.23;;;14.50;98.20;16.60;97343.00;;;;5055287;28;20211;-79
2022/09/22 09:06:51;;;;;;;0.90;0.90;;;14.70;98.40;16.30;97357.00;;;;5058098;28;20653;-77
2022/09/22 09:09:58;;;;;;;1.03;1.03;;;14.90;95.70;16.20;97354.00;;;;5061911;28;20224;-77
2022/09/22 09:13:03;;;;;;;2.17;1.30;;;14.90;95.50;16.20;97362.00;;;;5080867;28;20191;-76
2022/09/22 09:16:07;;;;;;;1.83;0.70;;;14.90;95.20;15.60;97351.00;;;;5080004;28;20195;-70
2022/09/22 09:19:03;;;;;;;1.87;1.17;;;14.80;94.50;15.80;97357.00;;;;5080871;28;20625;-70
2022/09/22 09:22:01;;;;;;;1.67;1.23;;;14.60;95.10;15.00;97355.00;;;;5081002;28;20204;-76
2022/09/22 09:24:54;;;;;;;1.17;1.07;;;14.50;95.00;15.40;97363.00;;;;5083590;28;20195;-76
2022/09/22 09:28:07;;;;;;;1.37;1.27;;;14.30;94.10;15.40;97359.00;;;;5076583;28;20195;-75
2022/09/22 09:31:06;;;;;;;1.30;0.90;;;14.30;94.10;16.00;97354.00;;;;5083571;28;20587;-77
2022/09/22 09:34:01;;;;;;;1.50;1.23;;;14.40;94.40;16.80;97353.00;;;;5079386;28;20210;-76
2022/09/22 09:36:58;;;;;;;0.87;0.70;;;14.70;95.00;16.40;97354.00;;;;5085073;28;20248;-73
2022/09/22 09:39:47;;;;;;;0.80;0.80;;;14.80;93.80;16.60;97348.00;;;;5081538;28;20728;-75
2022/09/22 09:42:36;;;;;;;2.17;1.10;;;15.00;93.70;16.50;97344.00;;;;5077013;28;20711;-72
2022/09/22 09:45:31;;;;;;;1.10;1.00;;;15.10;93.50;16.70;97350.00;;;;5074560;28;20206;-77
2022/09/22 09:48:31;;;;;;;0.90;0.90;;;15.20;92.80;17.50;97342.00;;;;5084812;28;20254;-77
2022/09/22 09:51:20;;;;;;;1.70;0.93;;;15.40;93.20;17.70;97356.00;;;;5070861;28;20230;-77
2022/09/22 09:54:14;;;;;;;0.80;0.73;;;15.70;92.20;17.80;97327.00;;;;5082544;28;20199;-76
2022/09/22 09:57:10;;;;;;;1.20;1.10;;;16.00;91.80;17.80;97337.00;;;;5080420;28;20215;-78
2022/09/22 10:00:31;;;;;;;0.90;0.90;;;16.10;90.70;18.10;97344.00;;;;5071201;28;20278;-78
2022/09/22 10:03:27;;;;;;;0.87;0.67;;;16.30;90.00;18.20;97316.00;;;;5073845;28;20576;-73
2022/09/22 10:06:24;;;;;;;2.27;1.00;;;16.40;86.30;18.50;97328.00;;;;5083166;28;20678;-77
2022/09/22 10:09:24;;;;;;;1.50;0.90;;;16.70;87.40;18.30;97347.00;;;;5071908;28;20721;-78
2022/09/22 10:12:29;;;;;;;0.80;0.67;;;16.80;86.70;18.10;97346.00;;;;5076646;28;20329;-75
2022/09/22 10:15:24;;;;;;;0.80;0.80;;;16.90;84.00;18.30;97346.00;;;;5083469;28;20642;-77
2022/09/22 10:18:34;;;;;;;0.67;0.67;;;16.80;83.50;18.90;97353.00;;;;5083398;28;20203;-78
2022/09/22 10:21:24;;;;;;;1.13;0.67;;;16.90;83.80;18.70;97343.00;;;;5088222;28;20219;-78
2022/09/22 10:24:30;;;;;;;0.60;0.60;;;17.00;84.60;19.30;97331.00;;;;5076551;28;20196;-77
2022/09/22 10:27:22;;;;;;;0.73;0.73;;;17.20;85.00;18.80;97345.00;;;;5074289;28;20202;-78
2022/09/22 10:30:23;;;;;;;1.23;0.87;;;17.20;82.10;18.90;97330.00;;;;5084493;28;20751;-77
2022/09/22 10:33:19;;;;;;;4.73;0.97;;;17.30;81.60;19.80;97294.00;;;;5076180;28;20237;-77
2022/09/22 10:36:10;;;;;;;0.57;0.57;;;17.70;80.40;19.40;97336.00;;;;5082142;28;20203;-76
2022/09/22 10:38:59;;;;;;;0.73;0.73;;;17.80;79.30;21.10;97319.00;;;;5087989;28;20196;-79
2022/09/22 10:41:49;;;;;;;1.07;0.90;;;18.30;81.50;20.40;97286.00;;;;5073452;28;20266;-78
2022/09/22 10:44:39;;;;;;;0.63;0.63;;;18.60;76.90;22.00;97286.00;;;;5090163;28;20248;-77
2022/09/22 10:47:39;;;;;;;0.80;0.80;;;19.10;77.00;23.00;97287.00;;;;5076964;28;20206;-78
2022/09/22 10:50:56;;;;;;;0.77;0.73;;;19.90;77.10;23.50;97316.00;;;;5090926;28;20227;-78
2022/09/22 10:54:19;;;;;;;2.00;1.23;;;20.60;74.80;22.00;97265.00;;;;5081314;28;20705;-80
2022/09/22 10:57:26;;;;;;;1.27;0.83;;;20.60;69.40;21.70;97314.00;;;;5078372;28;20199;-72
2022/09/22 11:00:16;;;;;;;0.77;0.63;;;20.70;67.70;21.30;97317.00;;;;5086878;28;20234;-78
2022/09/22 11:03:46;;;;;;;0.83;0.73;;;20.30;67.40;21.50;97315.00;;;;5081643;28;20208;-78
2022/09/22 11:13:52;;;;;;;1.37;1.00;;;19.80;67.80;20.90;97326.00;;;;5085471;28;20207;-78
2022/09/22 11:16:55;;;;;;;0.67;0.67;;;19.60;67.80;20.90;97326.00;;;;5084791;28;20268;-78
2022/09/22 11:20:07;;;;;;;1.67;0.70;;;19.40;68.60;20.20;97318.00;;;;5086622;28;20214;-77
2022/09/22 11:23:22;;;;;;;1.03;0.70;;;19.20;67.00;20.10;97323.00;;;;5083206;28;20202;-77
2022/09/22 11:26:47;;;;;;;0.87;0.87;;;19.40;68.50;20.20;97313.00;;;;5084247;28;20199;-78
2022/09/22 11:30:13;;;;;;;1.57;0.90;;;18.70;69.40;20.30;97299.00;;;;5088279;28;20332;-78
2022/09/22 11:33:26;;;;;;;0.93;0.87;;;18.70;67.10;21.50;97269.00;;;;5078836;28;20196;-78
2022/09/22 11:36:29;;;;;;;1.07;0.80;;;18.90;69.80;20.70;97309.00;;;;5076369;28;20253;-77
2022/09/22 12:29:55;;;;;;;0.73;0.73;;;17.70;64.20;17.30;97275.00;;;;5105069;27;20671;-74
2022/09/22 12:32:45;;;;;;;1.83;0.50;;;16.60;66.30;18.20;97266.00;;;;5099799;28;20191;-75
2022/09/22 12:35:33;;;;;;;0.60;0.60;;;16.60;65.00;18.90;97261.00;;;;5076426;22;20264;-86
2022/09/22 12:38:23;;;;;;;0.50;0.50;;;16.80;67.60;19.50;97262.00;;;;5050335;28;20580;-85
2022/09/22 12:41:17;;;;;;;3.53;1.50;;;17.10;66.50;21.70;97267.00;;;;5054615;28;20208;-85
2022/09/22 12:44:12;;;;;;;1.43;1.10;;;18.00;69.80;22.00;97175.00;;;;5052379;28;20205;-86
2022/09/22 12:47:06;;;;;;;2.20;1.20;;;18.70;71.20;23.20;97261.00;;;;5068453;22;20354;-73
2022/09/22 12:49:58;;;;;;;2.47;1.20;;;19.70;71.30;22.70;97271.00;;;;5062722;28;20223;-74
2022/09/22 12:53:03;;;;;;;2.20;0.87;;;20.30;67.50;22.20;97274.00;;;;5064946;28;20238;-73
2022/09/22 12:55:53;;;;;;;1.20;1.10;;;20.50;64.70;21.90;97275.00;;;;5065645;28;20600;-74
2022/09/22 12:58:43;;;;;;;1.10;1.00;;;20.30;64.50;21.50;97280.00;;;;5082933;28;20223;-73
2022/09/22 13:01:35;;;;;;;2.40;0.60;;;20.20;64.50;21.60;97271.00;;;;5089660;28;20227;-73
2022/09/22 13:04:25;;;;;;;0.77;0.77;;;20.00;64.80;21.00;97271.00;;;;5096312;28;20264;-73
2022/09/22 13:07:34;;;;;;;1.10;0.87;;;19.90;64.20;21.50;97259.00;;;;5082973;28;20221;-73
2022/09/22 13:10:51;;;;;;;2.50;1.17;;;19.70;64.80;21.60;97271.00;;;;5083380;28;20238;-73
2022/09/22 13:13:44;;;;;;;0.90;0.77;;;19.70;65.60;22.00;97228.00;;;;5073714;28;20195;-73
2022/09/22 13:16:35;;;;;;;0.80;0.80;;;20.00;64.10;21.60;97237.00;;;;5085120;28;20257;-74
2022/09/22 13:19:25;;;;;;;0.73;0.60;;;20.00;62.80;20.40;97278.00;;;;5072860;28;20219;-73
2022/09/22 13:22:18;;;;;;;0.80;0.77;;;19.90;61.40;19.70;97284.00;;;;5084068;28;20286;-73
2022/09/22 13:25:31;;;;;;;0.70;0.70;;;19.40;62.50;18.70;97284.00;;;;5086005;28;20219;-73
2022/09/22 13:28:21;;;;;;;0.87;0.80;;;18.60;65.00;18.80;97281.00;;;;5072624;28;20207;-73
2022/09/22 13:31:15;;;;;;;0.73;0.73;;;18.10;67.10;18.70;97278.00;;;;5071492;28;20204;-73
2022/09/22 13:34:28;;;;;;;1.00;0.90;;;17.80;67.90;18.80;97272.00;;;;5071912;28;20204;-75
2022/09/22 13:37:21;;;;;;;1.53;0.67;;;17.50;69.00;18.80;97256.00;;;;5071808;28;20215;-74
2022/09/22 13:40:11;;;;;;;0.60;0.60;;;17.40;70.40;19.30;97271.00;;;;5063732;28;20196;-74
2022/09/22 13:43:05;;;;;;;1.13;0.80;;;17.50;71.60;19.10;97268.00;;;;5067766;28;20207;-74
2022/09/22 13:45:55;;;;;;;1.20;0.93;;;17.60;71.40;19.20;97272.00;;;;5077797;28;20225;-74
2022/09/22 13:48:44;;;;;;;0.80;0.77;;;17.60;70.90;19.10;97269.00;;;;5070734;28;20803;-73
2022/09/22 13:51:34;;;;;;;3.13;0.80;;;17.60;72.10;19.20;97271.00;;;;5069738;28;20199;-73
2022/09/22 13:54:26;;;;;;;2.03;1.07;;;17.60;71.80;19.20;97261.00;;;;5071354;28;20673;-74
2022/09/22 13:57:21;;;;;;;1.93;1.33;;;17.60;72.90;20.10;97274.00;;;;5063828;28;20193;-74
2022/09/22 14:00:25;;;;;;;2.27;1.47;;;17.90;72.70;20.90;97198.00;;;;5060689;28;20287;-73
2022/09/22 14:03:19;;;;;;;0.93;0.93;;;18.20;72.90;22.60;97198.00;;;;5075822;28;20205;-73